sensor_id;sensor_type;location;lat;lon;timestamp;temperature;humidity
1005;DHT22;491;53.480;10.174;2022-10-31T00:00:17;10.60;99.90
1005;DHT22;491;53.480;10.174;2022-10-31T00:02:43;10.60;99.90
1005;DHT22;491;53.480;10.174;2022-10-31T00:05:08;10.50;99.90
1005;DHT22;491;53.480;10.174;2022-10-31T00:07:43;10.50;99.90
1005;DHT22;491;53.480;10.174;2022-10-31T00:10:09;10.50;99.90
1005;DHT22;491;53.480;10.174;2022-10-31T00:12:34;10.50;99.90
1005;DHT22;491;53.480;10.174;2022-10-31T00:15:00;10.50;99.90
1005;DHT22;491;53.480;10.174;2022-10-31T00:17:25;10.40;99.90
1005;DHT22;491;53.480;10.174;2022-10-31T00:19:51;10.30;99.90
1005;DHT22;491;53.480;10.174;2022-10-31T00:22:16;10.40;99.90
1005;DHT22;491;53.480;10.174;2022-10-31T00:24:42;10.40;99.90
1005;DHT22;491;53.480;10.174;2022-10-31T00:27:07;10.50;99.90
1005;DHT22;491;53.480;10.174;2022-10-31T00:29:32;10.40;99.90
1005;DHT22;491;53.480;10.174;2022-10-31T00:31:58;10.40;99.90
1005;DHT22;491;53.480;10.174;2022-10-31T00:34:23;10.40;99.90
1005;DHT22;491;53.480;10.174;2022-10-31T00:36:49;10.40;99.90
1005;DHT22;491;53.480;10.174;2022-10-31T00:39:14;10.40;99.90
1005;DHT22;491;53.480;10.174;2022-10-31T00:41:40;10.30;99.90
1005;DHT22;491;53.480;10.174;2022-10-31T00:44:05;10.30;99.90
1005;DHT22;491;53.480;10.174;2022-10-31T00:46:31;10.20;99.90
1005;DHT22;491;53.480;10.174;2022-10-31T00:48:56;10.20;99.90
1005;DHT22;491;53.480;10.174;2022-10-31T00:51:22;10.20;99.90
1005;DHT22;491;53.480;10.174;2022-10-31T00:53:47;10.20;99.90
1005;DHT22;491;53.480;10.174;2022-10-31T00:56:13;10.20;99.90
1005;DHT22;491;53.480;10.174;2022-10-31T00:58:38;10.10;99.90
1005;DHT22;491;53.480;10.174;2022-10-31T01:01:04;10.20;99.90
1005;DHT22;491;53.480;10.174;2022-10-31T01:03:31;10.20;99.90
1005;DHT22;491;53.480;10.174;2022-10-31T01:06:09;10.10;99.90
1005;DHT22;491;53.480;10.174;2022-10-31T01:08:36;10.10;99.90
1005;DHT22;491;53.480;10.174;2022-10-31T01:11:14;10.10;99.90
1005;DHT22;491;53.480;10.174;2022-10-31T01:13:41;10.10;99.90
1005;DHT22;491;53.480;10.174;2022-10-31T01:16:09;10.10;99.90
1005;DHT22;491;53.480;10.174;2022-10-31T01:18:35;10.00;99.90
1005;DHT22;491;53.480;10.174;2022-10-31T01:23:34;10.10;99.90
1005;DHT22;491;53.480;10.174;2022-10-31T01:26:02;10.10;99.90
1005;DHT22;491;53.480;10.174;2022-10-31T01:28:27;10.10;99.90
1005;DHT22;491;53.480;10.174;2022-10-31T01:30:53;10.10;99.90
1005;DHT22;491;53.480;10.174;2022-10-31T01:33:18;10.10;99.90
1005;DHT22;491;53.480;10.174;2022-10-31T01:35:44;10.10;99.90
1005;DHT22;491;53.480;10.174;2022-10-31T01:38:09;10.10;99.90
1005;DHT22;491;53.480;10.174;2022-10-31T01:40:35;10.20;99.90
1005;DHT22;491;53.480;10.174;2022-10-31T01:43:00;10.20;99.90
1005;DHT22;491;53.480;10.174;2022-10-31T01:45:26;10.10;99.90
1005;DHT22;491;53.480;10.174;2022-10-31T01:47:51;10.00;99.90
1005;DHT22;491;53.480;10.174;2022-10-31T01:50:30;10.00;99.90
1005;DHT22;491;53.480;10.174;2022-10-31T01:52:58;9.90;99.90
1005;DHT22;491;53.480;10.174;2022-10-31T01:55:30;9.90;99.90
1005;DHT22;491;53.480;10.174;2022-10-31T01:58:01;10.00;99.90
1005;DHT22;491;53.480;10.174;2022-10-31T02:00:27;9.90;99.90
1005;DHT22;491;53.480;10.174;2022-10-31T02:02:53;9.90;99.90
1005;DHT22;491;53.480;10.174;2022-10-31T02:05:23;9.90;99.90
1005;DHT22;491;53.480;10.174;2022-10-31T02:08:03;9.90;99.90
1005;DHT22;491;53.480;10.174;2022-10-31T02:10:31;9.90;99.90
1005;DHT22;491;53.480;10.174;2022-10-31T02:12:58;9.80;99.90
1005;DHT22;491;53.480;10.174;2022-10-31T02:15:26;9.80;99.90
1005;DHT22;491;53.480;10.174;2022-10-31T02:17:51;9.80;99.90
1005;DHT22;491;53.480;10.174;2022-10-31T02:23:10;9.70;99.90
1005;DHT22;491;53.480;10.174;2022-10-31T02:33:57;9.60;99.90
1005;DHT22;491;53.480;10.174;2022-10-31T02:36:35;9.60;99.90
1005;DHT22;491;53.480;10.174;2022-10-31T02:41:48;9.70;99.90
1005;DHT22;491;53.480;10.174;2022-10-31T02:44:44;9.70;99.90
1005;DHT22;491;53.480;10.174;2022-10-31T02:47:16;9.80;99.90
1005;DHT22;491;53.480;10.174;2022-10-31T02:52:33;10.00;99.90
1005;DHT22;491;53.480;10.174;2022-10-31T02:55:38;10.20;99.90
1005;DHT22;491;53.480;10.174;2022-10-31T03:00:49;10.20;99.90
1005;DHT22;491;53.480;10.174;2022-10-31T03:03:36;10.20;99.90
1005;DHT22;491;53.480;10.174;2022-10-31T03:06:17;10.10;99.90
1005;DHT22;491;53.480;10.174;2022-10-31T03:09:01;10.00;99.90
1005;DHT22;491;53.480;10.174;2022-10-31T03:11:34;9.90;99.90
1005;DHT22;491;53.480;10.174;2022-10-31T03:14:09;9.80;99.90
1005;DHT22;491;53.480;10.174;2022-10-31T03:16:48;9.80;99.90
1005;DHT22;491;53.480;10.174;2022-10-31T03:19:28;9.70;99.90
1005;DHT22;491;53.480;10.174;2022-10-31T03:21:56;9.70;99.90
1005;DHT22;491;53.480;10.174;2022-10-31T03:24:27;9.70;99.90
1005;DHT22;491;53.480;10.174;2022-10-31T03:26:57;9.70;99.90
1005;DHT22;491;53.480;10.174;2022-10-31T03:29:27;9.60;99.90
1005;DHT22;491;53.480;10.174;2022-10-31T03:32:03;9.70;99.90
1005;DHT22;491;53.480;10.174;2022-10-31T03:34:31;9.70;99.90
1005;DHT22;491;53.480;10.174;2022-10-31T03:36:59;9.70;99.90
1005;DHT22;491;53.480;10.174;2022-10-31T03:39:27;9.70;99.90
1005;DHT22;491;53.480;10.174;2022-10-31T03:41:56;9.60;99.90
1005;DHT22;491;53.480;10.174;2022-10-31T03:44:23;9.70;99.90
1005;DHT22;491;53.480;10.174;2022-10-31T03:46:49;9.70;99.90
1005;DHT22;491;53.480;10.174;2022-10-31T03:49:16;9.60;99.90
1005;DHT22;491;53.480;10.174;2022-10-31T03:51:50;9.60;99.90
1005;DHT22;491;53.480;10.174;2022-10-31T03:54:55;9.60;99.90
1005;DHT22;491;53.480;10.174;2022-10-31T03:57:33;9.50;99.90
1005;DHT22;491;53.480;10.174;2022-10-31T04:00:14;9.50;99.90
1005;DHT22;491;53.480;10.174;2022-10-31T04:02:45;9.50;99.90
1005;DHT22;491;53.480;10.174;2022-10-31T04:05:12;9.40;99.90
1005;DHT22;491;53.480;10.174;2022-10-31T04:07:41;9.40;99.90
1005;DHT22;491;53.480;10.174;2022-10-31T04:10:11;9.40;99.90
1005;DHT22;491;53.480;10.174;2022-10-31T04:12:39;9.40;99.90
1005;DHT22;491;53.480;10.174;2022-10-31T04:15:06;9.40;99.90
1005;DHT22;491;53.480;10.174;2022-10-31T04:17:36;9.30;99.90
1005;DHT22;491;53.480;10.174;2022-10-31T04:20:03;9.30;99.90
1005;DHT22;491;53.480;10.174;2022-10-31T04:22:29;9.30;99.90
1005;DHT22;491;53.480;10.174;2022-10-31T04:24:55;9.30;99.90
1005;DHT22;491;53.480;10.174;2022-10-31T04:27:20;9.30;99.90
1005;DHT22;491;53.480;10.174;2022-10-31T04:29:45;9.20;99.90
1005;DHT22;491;53.480;10.174;2022-10-31T04:32:11;9.30;99.90
1005;DHT22;491;53.480;10.174;2022-10-31T04:34:36;9.30;99.90
1005;DHT22;491;53.480;10.174;2022-10-31T04:37:02;9.30;99.90
1005;DHT22;491;53.480;10.174;2022-10-31T04:39:28;9.20;99.90
1005;DHT22;491;53.480;10.174;2022-10-31T04:41:54;9.20;99.90
1005;DHT22;491;53.480;10.174;2022-10-31T04:44:19;9.30;99.90
1005;DHT22;491;53.480;10.174;2022-10-31T04:46:45;9.30;99.90
1005;DHT22;491;53.480;10.174;2022-10-31T04:49:10;9.30;99.90
1005;DHT22;491;53.480;10.174;2022-10-31T04:51:36;9.30;99.90
1005;DHT22;491;53.480;10.174;2022-10-31T04:54:01;9.30;99.90
1005;DHT22;491;53.480;10.174;2022-10-31T04:56:27;9.30;99.90
1005;DHT22;491;53.480;10.174;2022-10-31T04:58:52;9.40;99.90
1005;DHT22;491;53.480;10.174;2022-10-31T05:01:18;9.40;99.90
1005;DHT22;491;53.480;10.174;2022-10-31T05:03:43;9.40;99.90
1005;DHT22;491;53.480;10.174;2022-10-31T05:06:09;9.50;99.90
1005;DHT22;491;53.480;10.174;2022-10-31T05:08:34;9.60;99.90
1005;DHT22;491;53.480;10.174;2022-10-31T05:11:01;9.70;99.90
1005;DHT22;491;53.480;10.174;2022-10-31T05:13:27;9.70;99.90
1005;DHT22;491;53.480;10.174;2022-10-31T05:15:52;9.80;99.90
1005;DHT22;491;53.480;10.174;2022-10-31T05:18:18;9.90;99.90
1005;DHT22;491;53.480;10.174;2022-10-31T05:20:43;10.00;99.90
1005;DHT22;491;53.480;10.174;2022-10-31T05:23:12;10.10;99.90
1005;DHT22;491;53.480;10.174;2022-10-31T05:25:40;10.20;99.90
1005;DHT22;491;53.480;10.174;2022-10-31T05:28:05;10.30;99.90
1005;DHT22;491;53.480;10.174;2022-10-31T05:30:32;10.30;99.90
1005;DHT22;491;53.480;10.174;2022-10-31T05:32:58;10.30;99.90
1005;DHT22;491;53.480;10.174;2022-10-31T05:35:26;10.30;99.90
1005;DHT22;491;53.480;10.174;2022-10-31T05:37:52;10.20;99.90
1005;DHT22;491;53.480;10.174;2022-10-31T05:40:19;10.30;99.90
1005;DHT22;491;53.480;10.174;2022-10-31T05:42:45;10.30;99.90
1005;DHT22;491;53.480;10.174;2022-10-31T05:45:15;10.30;99.90
1005;DHT22;491;53.480;10.174;2022-10-31T05:47:41;10.30;99.90
1005;DHT22;491;53.480;10.174;2022-10-31T05:50:07;10.30;99.90
1005;DHT22;491;53.480;10.174;2022-10-31T05:52:33;10.30;99.90
1005;DHT22;491;53.480;10.174;2022-10-31T05:54:58;10.30;99.90
1005;DHT22;491;53.480;10.174;2022-10-31T05:57:24;10.30;99.90
1005;DHT22;491;53.480;10.174;2022-10-31T05:59:49;10.30;99.90
1005;DHT22;491;53.480;10.174;2022-10-31T06:02:18;10.40;99.90
1005;DHT22;491;53.480;10.174;2022-10-31T06:04:44;10.40;99.90
1005;DHT22;491;53.480;10.174;2022-10-31T06:07:09;10.50;99.90
1005;DHT22;491;53.480;10.174;2022-10-31T06:09:35;10.50;99.90
1005;DHT22;491;53.480;10.174;2022-10-31T06:12:00;10.60;99.90
1005;DHT22;491;53.480;10.174;2022-10-31T06:14:25;10.60;99.90
1005;DHT22;491;53.480;10.174;2022-10-31T06:16:51;10.70;99.90
1005;DHT22;491;53.480;10.174;2022-10-31T06:19:16;10.70;99.90
1005;DHT22;491;53.480;10.174;2022-10-31T06:21:42;10.80;99.90
1005;DHT22;491;53.480;10.174;2022-10-31T06:24:07;10.80;99.90
1005;DHT22;491;53.480;10.174;2022-10-31T06:26:33;10.90;99.90
1005;DHT22;491;53.480;10.174;2022-10-31T06:28:58;10.90;99.90
1005;DHT22;491;53.480;10.174;2022-10-31T06:31:24;10.90;99.90
1005;DHT22;491;53.480;10.174;2022-10-31T06:33:49;10.90;99.90
1005;DHT22;491;53.480;10.174;2022-10-31T06:36:14;11.00;99.90
1005;DHT22;491;53.480;10.174;2022-10-31T06:38:40;11.00;99.90
1005;DHT22;491;53.480;10.174;2022-10-31T06:41:06;11.10;99.90
1005;DHT22;491;53.480;10.174;2022-10-31T06:43:31;11.20;99.90
1005;DHT22;491;53.480;10.174;2022-10-31T06:45:57;11.20;99.90
1005;DHT22;491;53.480;10.174;2022-10-31T06:48:24;11.20;99.90
1005;DHT22;491;53.480;10.174;2022-10-31T06:50:49;11.20;99.90
1005;DHT22;491;53.480;10.174;2022-10-31T06:53:15;11.20;99.90
1005;DHT22;491;53.480;10.174;2022-10-31T06:55:41;11.30;99.90
1005;DHT22;491;53.480;10.174;2022-10-31T06:58:08;11.40;99.90
1005;DHT22;491;53.480;10.174;2022-10-31T07:00:34;11.50;99.90
1005;DHT22;491;53.480;10.174;2022-10-31T07:03:05;11.50;99.90
1005;DHT22;491;53.480;10.174;2022-10-31T07:05:31;11.60;99.90
1005;DHT22;491;53.480;10.174;2022-10-31T07:08:04;11.60;99.90
1005;DHT22;491;53.480;10.174;2022-10-31T07:10:31;11.70;99.90
1005;DHT22;491;53.480;10.174;2022-10-31T07:12:59;11.90;99.90
1005;DHT22;491;53.480;10.174;2022-10-31T07:15:26;12.00;99.90
1005;DHT22;491;53.480;10.174;2022-10-31T07:17:52;12.10;99.90
1005;DHT22;491;53.480;10.174;2022-10-31T07:20:18;12.10;99.90
1005;DHT22;491;53.480;10.174;2022-10-31T07:22:43;12.30;99.90
1005;DHT22;491;53.480;10.174;2022-10-31T07:25:09;12.30;99.90
1005;DHT22;491;53.480;10.174;2022-10-31T07:27:40;12.50;99.90
1005;DHT22;491;53.480;10.174;2022-10-31T07:30:06;12.50;99.90
1005;DHT22;491;53.480;10.174;2022-10-31T07:32:42;12.60;99.90
1005;DHT22;491;53.480;10.174;2022-10-31T07:35:09;12.80;99.90
1005;DHT22;491;53.480;10.174;2022-10-31T07:37:36;12.80;99.90
1005;DHT22;491;53.480;10.174;2022-10-31T07:40:06;12.80;99.90
1005;DHT22;491;53.480;10.174;2022-10-31T07:42:42;12.90;99.90
1005;DHT22;491;53.480;10.174;2022-10-31T07:45:11;12.90;99.90
1005;DHT22;491;53.480;10.174;2022-10-31T07:47:47;13.00;99.90
1005;DHT22;491;53.480;10.174;2022-10-31T07:50:15;13.00;99.90
1005;DHT22;491;53.480;10.174;2022-10-31T07:52:42;12.90;99.90
1005;DHT22;491;53.480;10.174;2022-10-31T07:55:08;12.90;99.90
1005;DHT22;491;53.480;10.174;2022-10-31T07:57:34;12.90;99.90
1005;DHT22;491;53.480;10.174;2022-10-31T07:59:59;12.90;99.90
1005;DHT22;491;53.480;10.174;2022-10-31T08:02:25;12.80;99.90
1005;DHT22;491;53.480;10.174;2022-10-31T08:04:51;12.80;99.90
1005;DHT22;491;53.480;10.174;2022-10-31T08:07:17;12.90;99.90
1005;DHT22;491;53.480;10.174;2022-10-31T08:09:42;12.90;99.90
1005;DHT22;491;53.480;10.174;2022-10-31T08:12:10;12.90;99.90
1005;DHT22;491;53.480;10.174;2022-10-31T08:14:36;12.90;99.90
1005;DHT22;491;53.480;10.174;2022-10-31T08:17:01;12.90;99.90
1005;DHT22;491;53.480;10.174;2022-10-31T08:19:27;12.90;99.90
1005;DHT22;491;53.480;10.174;2022-10-31T08:21:53;12.80;99.90
1005;DHT22;491;53.480;10.174;2022-10-31T08:24:20;12.90;99.90
1005;DHT22;491;53.480;10.174;2022-10-31T08:26:46;12.90;99.90
1005;DHT22;491;53.480;10.174;2022-10-31T08:29:11;12.90;99.90
1005;DHT22;491;53.480;10.174;2022-10-31T08:31:37;12.90;99.90
1005;DHT22;491;53.480;10.174;2022-10-31T08:34:11;12.90;99.90
1005;DHT22;491;53.480;10.174;2022-10-31T08:36:37;12.90;99.90
1005;DHT22;491;53.480;10.174;2022-10-31T08:39:03;12.90;99.90
1005;DHT22;491;53.480;10.174;2022-10-31T08:41:28;12.80;99.90
1005;DHT22;491;53.480;10.174;2022-10-31T08:43:54;12.80;99.90
1005;DHT22;491;53.480;10.174;2022-10-31T08:46:20;12.80;99.90
1005;DHT22;491;53.480;10.174;2022-10-31T08:48:48;12.80;99.90
1005;DHT22;491;53.480;10.174;2022-10-31T08:51:13;12.90;99.90
1005;DHT22;491;53.480;10.174;2022-10-31T08:53:39;12.90;99.90
1005;DHT22;491;53.480;10.174;2022-10-31T08:56:04;12.90;99.90
1005;DHT22;491;53.480;10.174;2022-10-31T08:58:30;12.90;99.90
1005;DHT22;491;53.480;10.174;2022-10-31T09:00:55;13.00;99.90
1005;DHT22;491;53.480;10.174;2022-10-31T09:03:25;13.00;99.90
1005;DHT22;491;53.480;10.174;2022-10-31T09:05:55;13.10;99.90
1005;DHT22;491;53.480;10.174;2022-10-31T09:08:21;13.20;99.90
1005;DHT22;491;53.480;10.174;2022-10-31T09:10:47;13.40;99.90
1005;DHT22;491;53.480;10.174;2022-10-31T09:13:18;13.60;99.90
1005;DHT22;491;53.480;10.174;2022-10-31T09:15:47;13.60;99.90
1005;DHT22;491;53.480;10.174;2022-10-31T09:18:14;13.70;99.90
1005;DHT22;491;53.480;10.174;2022-10-31T09:20:41;13.60;99.90
1005;DHT22;491;53.480;10.174;2022-10-31T09:23:13;13.60;99.90
1005;DHT22;491;53.480;10.174;2022-10-31T09:25:42;13.60;99.90
1005;DHT22;491;53.480;10.174;2022-10-31T09:28:11;13.60;99.90
1005;DHT22;491;53.480;10.174;2022-10-31T09:30:39;13.50;99.90
1005;DHT22;491;53.480;10.174;2022-10-31T09:33:06;13.50;99.90
1005;DHT22;491;53.480;10.174;2022-10-31T09:35:32;13.60;99.90
1005;DHT22;491;53.480;10.174;2022-10-31T09:38:02;13.70;99.90
1005;DHT22;491;53.480;10.174;2022-10-31T09:40:33;13.70;99.90
1005;DHT22;491;53.480;10.174;2022-10-31T09:43:21;13.70;99.90
1005;DHT22;491;53.480;10.174;2022-10-31T09:46:11;13.70;99.90
1005;DHT22;491;53.480;10.174;2022-10-31T09:51:28;13.60;99.90
1005;DHT22;491;53.480;10.174;2022-10-31T09:54:02;13.60;99.90
1005;DHT22;491;53.480;10.174;2022-10-31T09:56:31;13.60;99.90
1005;DHT22;491;53.480;10.174;2022-10-31T09:58:59;13.70;99.90
1005;DHT22;491;53.480;10.174;2022-10-31T10:04:15;13.70;99.90
1005;DHT22;491;53.480;10.174;2022-10-31T10:06:46;13.70;99.90
1005;DHT22;491;53.480;10.174;2022-10-31T10:09:12;13.70;99.90
1005;DHT22;491;53.480;10.174;2022-10-31T10:12:07;13.70;99.90
1005;DHT22;491;53.480;10.174;2022-10-31T10:17:21;13.70;99.90
1005;DHT22;491;53.480;10.174;2022-10-31T10:25:21;13.70;99.90
1005;DHT22;491;53.480;10.174;2022-10-31T10:28:03;13.70;99.90
1005;DHT22;491;53.480;10.174;2022-10-31T10:30:47;13.70;99.90
1005;DHT22;491;53.480;10.174;2022-10-31T10:33:20;13.80;99.90
1005;DHT22;491;53.480;10.174;2022-10-31T10:35:52;13.80;99.90
1005;DHT22;491;53.480;10.174;2022-10-31T10:38:49;13.80;99.90
1005;DHT22;491;53.480;10.174;2022-10-31T10:41:20;13.80;99.90
1005;DHT22;491;53.480;10.174;2022-10-31T10:43:48;13.70;99.90
1005;DHT22;491;53.480;10.174;2022-10-31T10:46:17;13.80;99.90
1005;DHT22;491;53.480;10.174;2022-10-31T10:54:21;13.80;99.90
1005;DHT22;491;53.480;10.174;2022-10-31T10:57:21;13.80;99.90
1005;DHT22;491;53.480;10.174;2022-10-31T10:59:47;13.90;99.90
1005;DHT22;491;53.480;10.174;2022-10-31T11:02:19;13.90;99.90
1005;DHT22;491;53.480;10.174;2022-10-31T11:04:49;13.80;99.90
1005;DHT22;491;53.480;10.174;2022-10-31T11:07:15;13.90;99.90
1005;DHT22;491;53.480;10.174;2022-10-31T11:09:40;13.80;99.90
1005;DHT22;491;53.480;10.174;2022-10-31T11:12:29;14.00;99.90
1005;DHT22;491;53.480;10.174;2022-10-31T11:14:58;14.00;99.90
1005;DHT22;491;53.480;10.174;2022-10-31T11:17:37;14.10;99.90
1005;DHT22;491;53.480;10.174;2022-10-31T11:20:26;14.10;99.90
1005;DHT22;491;53.480;10.174;2022-10-31T11:23:05;14.00;99.90
1005;DHT22;491;53.480;10.174;2022-10-31T11:25:39;14.10;99.90
1005;DHT22;491;53.480;10.174;2022-10-31T11:28:07;14.10;99.90
1005;DHT22;491;53.480;10.174;2022-10-31T11:30:55;14.10;99.90
1005;DHT22;491;53.480;10.174;2022-10-31T11:33:26;14.10;99.90
1005;DHT22;491;53.480;10.174;2022-10-31T11:35:53;14.20;99.90
1005;DHT22;491;53.480;10.174;2022-10-31T11:38:22;14.20;99.90
1005;DHT22;491;53.480;10.174;2022-10-31T11:40:57;14.20;99.90
1005;DHT22;491;53.480;10.174;2022-10-31T11:43:27;14.20;99.90
1005;DHT22;491;53.480;10.174;2022-10-31T11:45:56;14.20;99.90
1005;DHT22;491;53.480;10.174;2022-10-31T11:48:23;14.20;99.90
1005;DHT22;491;53.480;10.174;2022-10-31T11:50:52;14.30;99.90
1005;DHT22;491;53.480;10.174;2022-10-31T11:53:26;14.30;99.90
1005;DHT22;491;53.480;10.174;2022-10-31T11:58:29;14.20;99.90
1005;DHT22;491;53.480;10.174;2022-10-31T12:00:56;14.20;99.90
1005;DHT22;491;53.480;10.174;2022-10-31T12:05:55;14.30;99.90
1005;DHT22;491;53.480;10.174;2022-10-31T12:08:34;14.20;99.90
1005;DHT22;491;53.480;10.174;2022-10-31T12:16:54;14.50;99.90
1005;DHT22;491;53.480;10.174;2022-10-31T12:19:59;14.60;99.90
1005;DHT22;491;53.480;10.174;2022-10-31T12:25:46;14.80;99.90
1005;DHT22;491;53.480;10.174;2022-10-31T12:37:15;14.80;99.90
1005;DHT22;491;53.480;10.174;2022-10-31T12:40:00;14.80;99.90
1005;DHT22;491;53.480;10.174;2022-10-31T12:45:51;14.60;99.90
1005;DHT22;491;53.480;10.174;2022-10-31T12:48:40;14.60;99.90
1005;DHT22;491;53.480;10.174;2022-10-31T12:54:15;14.90;99.90
1005;DHT22;491;53.480;10.174;2022-10-31T12:57:06;15.00;99.90
1005;DHT22;491;53.480;10.174;2022-10-31T12:59:44;15.00;99.90
1005;DHT22;491;53.480;10.174;2022-10-31T13:02:30;15.10;99.90
1005;DHT22;491;53.480;10.174;2022-10-31T13:05:03;15.10;99.90
1005;DHT22;491;53.480;10.174;2022-10-31T13:10:21;15.20;99.90
1005;DHT22;491;53.480;10.174;2022-10-31T13:12:49;15.20;99.90
1005;DHT22;491;53.480;10.174;2022-10-31T13:15:20;15.20;99.90
1005;DHT22;491;53.480;10.174;2022-10-31T13:17:49;15.10;99.90
1005;DHT22;491;53.480;10.174;2022-10-31T13:23:31;14.90;99.90
1005;DHT22;491;53.480;10.174;2022-10-31T13:25:59;15.00;99.90
1005;DHT22;491;53.480;10.174;2022-10-31T13:28:54;15.00;99.90
1005;DHT22;491;53.480;10.174;2022-10-31T13:31:22;15.00;99.90
1005;DHT22;491;53.480;10.174;2022-10-31T13:33:56;15.00;99.90
1005;DHT22;491;53.480;10.174;2022-10-31T13:36:33;15.00;99.90
1005;DHT22;491;53.480;10.174;2022-10-31T13:41:52;14.90;99.90
1005;DHT22;491;53.480;10.174;2022-10-31T13:44:21;15.00;99.90
1005;DHT22;491;53.480;10.174;2022-10-31T13:46:50;15.10;99.90
1005;DHT22;491;53.480;10.174;2022-10-31T13:54:42;14.80;99.90
1005;DHT22;491;53.480;10.174;2022-10-31T13:57:21;14.70;99.90
1005;DHT22;491;53.480;10.174;2022-10-31T13:59:50;14.60;99.90
1005;DHT22;491;53.480;10.174;2022-10-31T14:02:19;14.30;99.90
1005;DHT22;491;53.480;10.174;2022-10-31T14:04:52;14.20;99.90
1005;DHT22;491;53.480;10.174;2022-10-31T14:07:21;14.10;99.90
1005;DHT22;491;53.480;10.174;2022-10-31T14:12:31;14.20;99.90
1005;DHT22;491;53.480;10.174;2022-10-31T14:15:19;14.10;99.90
1005;DHT22;491;53.480;10.174;2022-10-31T14:22:44;14.10;99.90
1005;DHT22;491;53.480;10.174;2022-10-31T14:27:56;14.00;99.90
1005;DHT22;491;53.480;10.174;2022-10-31T14:30:24;14.00;99.90
1005;DHT22;491;53.480;10.174;2022-10-31T14:32:53;14.00;99.90
1005;DHT22;491;53.480;10.174;2022-10-31T14:35:20;14.00;99.90
1005;DHT22;491;53.480;10.174;2022-10-31T14:40:59;13.80;99.90
1005;DHT22;491;53.480;10.174;2022-10-31T14:46:31;13.70;99.90
1005;DHT22;491;53.480;10.174;2022-10-31T14:49:18;13.60;99.90
1005;DHT22;491;53.480;10.174;2022-10-31T14:51:47;13.50;99.90
1005;DHT22;491;53.480;10.174;2022-10-31T14:54:24;13.50;99.90
1005;DHT22;491;53.480;10.174;2022-10-31T14:56:59;13.50;99.90
1005;DHT22;491;53.480;10.174;2022-10-31T14:59:30;13.40;99.90
1005;DHT22;491;53.480;10.174;2022-10-31T15:02:06;13.40;99.90
1005;DHT22;491;53.480;10.174;2022-10-31T15:04:35;13.30;99.90
1005;DHT22;491;53.480;10.174;2022-10-31T15:07:20;13.30;99.90
1005;DHT22;491;53.480;10.174;2022-10-31T15:10:15;13.30;99.90
1005;DHT22;491;53.480;10.174;2022-10-31T15:12:44;13.40;99.90
1005;DHT22;491;53.480;10.174;2022-10-31T15:15:20;13.30;99.90
1005;DHT22;491;53.480;10.174;2022-10-31T15:17:50;13.30;99.90
1005;DHT22;491;53.480;10.174;2022-10-31T15:20:25;13.20;99.90
1005;DHT22;491;53.480;10.174;2022-10-31T15:22:51;13.20;99.90
1005;DHT22;491;53.480;10.174;2022-10-31T15:25:20;13.20;99.90
1005;DHT22;491;53.480;10.174;2022-10-31T15:27:48;13.20;99.90
1005;DHT22;491;53.480;10.174;2022-10-31T15:30:23;13.10;99.90
1005;DHT22;491;53.480;10.174;2022-10-31T15:32:49;13.00;99.90
1005;DHT22;491;53.480;10.174;2022-10-31T15:35:23;13.00;99.90
1005;DHT22;491;53.480;10.174;2022-10-31T15:37:49;12.90;99.90
1005;DHT22;491;53.480;10.174;2022-10-31T15:40:17;12.80;99.90
1005;DHT22;491;53.480;10.174;2022-10-31T15:42:51;12.80;99.90
1005;DHT22;491;53.480;10.174;2022-10-31T15:45:21;12.70;99.90
1005;DHT22;491;53.480;10.174;2022-10-31T15:50:48;12.60;99.90
1005;DHT22;491;53.480;10.174;2022-10-31T15:53:35;12.50;99.90
1005;DHT22;491;53.480;10.174;2022-10-31T15:56:07;12.50;99.90
1005;DHT22;491;53.480;10.174;2022-10-31T15:58:41;12.50;99.90
1005;DHT22;491;53.480;10.174;2022-10-31T16:01:20;12.50;99.90
1005;DHT22;491;53.480;10.174;2022-10-31T16:06:37;12.50;99.90
1005;DHT22;491;53.480;10.174;2022-10-31T16:09:18;12.50;99.90
1005;DHT22;491;53.480;10.174;2022-10-31T16:11:46;12.50;99.90
1005;DHT22;491;53.480;10.174;2022-10-31T16:16:46;12.40;99.90
1005;DHT22;491;53.480;10.174;2022-10-31T16:19:18;12.50;99.90
1005;DHT22;491;53.480;10.174;2022-10-31T16:21:44;12.50;99.90
1005;DHT22;491;53.480;10.174;2022-10-31T16:26:40;12.50;99.90
1005;DHT22;491;53.480;10.174;2022-10-31T16:29:34;12.50;99.90
1005;DHT22;491;53.480;10.174;2022-10-31T16:32:01;12.60;99.90
1005;DHT22;491;53.480;10.174;2022-10-31T16:34:26;12.60;99.90
1005;DHT22;491;53.480;10.174;2022-10-31T16:36:52;12.60;99.90
1005;DHT22;491;53.480;10.174;2022-10-31T16:39:17;12.60;99.90
1005;DHT22;491;53.480;10.174;2022-10-31T16:41:45;12.60;99.90
1005;DHT22;491;53.480;10.174;2022-10-31T16:44:18;12.70;99.90
1005;DHT22;491;53.480;10.174;2022-10-31T16:46:44;12.70;99.90
1005;DHT22;491;53.480;10.174;2022-10-31T16:49:10;12.70;99.90
1005;DHT22;491;53.480;10.174;2022-10-31T16:51:35;12.70;99.90
1005;DHT22;491;53.480;10.174;2022-10-31T16:54:01;12.70;99.90
1005;DHT22;491;53.480;10.174;2022-10-31T16:56:33;12.70;99.90
1005;DHT22;491;53.480;10.174;2022-10-31T16:59:01;12.70;99.90
1005;DHT22;491;53.480;10.174;2022-10-31T17:01:28;12.60;99.90
1005;DHT22;491;53.480;10.174;2022-10-31T17:03:54;12.70;99.90
1005;DHT22;491;53.480;10.174;2022-10-31T17:06:19;12.70;99.90
1005;DHT22;491;53.480;10.174;2022-10-31T17:08:45;12.70;99.90
1005;DHT22;491;53.480;10.174;2022-10-31T17:11:17;12.70;99.90
1005;DHT22;491;53.480;10.174;2022-10-31T17:13:44;12.70;99.90
1005;DHT22;491;53.480;10.174;2022-10-31T17:16:12;12.70;99.90
1005;DHT22;491;53.480;10.174;2022-10-31T17:18:38;12.70;99.90
1005;DHT22;491;53.480;10.174;2022-10-31T17:21:04;12.70;99.90
1005;DHT22;491;53.480;10.174;2022-10-31T17:23:32;12.70;99.90
1005;DHT22;491;53.480;10.174;2022-10-31T17:25:58;12.70;99.90
1005;DHT22;491;53.480;10.174;2022-10-31T17:28:25;12.70;99.90
1005;DHT22;491;53.480;10.174;2022-10-31T17:30:53;12.60;99.90
1005;DHT22;491;53.480;10.174;2022-10-31T17:33:18;12.70;99.90
1005;DHT22;491;53.480;10.174;2022-10-31T17:35:44;12.70;99.90
1005;DHT22;491;53.480;10.174;2022-10-31T17:38:10;12.70;99.90
1005;DHT22;491;53.480;10.174;2022-10-31T17:40:37;12.70;99.90
1005;DHT22;491;53.480;10.174;2022-10-31T17:43:04;12.60;99.90
1005;DHT22;491;53.480;10.174;2022-10-31T17:45:31;12.60;99.90
1005;DHT22;491;53.480;10.174;2022-10-31T17:47:57;12.60;99.90
1005;DHT22;491;53.480;10.174;2022-10-31T17:50:24;12.60;99.90
1005;DHT22;491;53.480;10.174;2022-10-31T17:52:51;12.60;99.90
1005;DHT22;491;53.480;10.174;2022-10-31T17:55:17;12.60;99.90
1005;DHT22;491;53.480;10.174;2022-10-31T17:57:44;12.60;99.90
1005;DHT22;491;53.480;10.174;2022-10-31T18:00:15;12.50;99.90
1005;DHT22;491;53.480;10.174;2022-10-31T18:02:42;12.50;99.90
1005;DHT22;491;53.480;10.174;2022-10-31T18:05:08;12.60;99.90
1005;DHT22;491;53.480;10.174;2022-10-31T18:07:34;12.60;99.90
1005;DHT22;491;53.480;10.174;2022-10-31T18:10:00;12.60;99.90
1005;DHT22;491;53.480;10.174;2022-10-31T18:12:26;12.50;99.90